createdAt,value
2022-11-09T00:00:15.112Z,0.73
2022-11-09T00:05:17.099Z,0.40
2022-11-09T00:10:19.024Z,0.80
2022-11-09T00:15:20.947Z,0.50
2022-11-09T00:20:22.764Z,0.60
2022-11-09T00:25:24.988Z,0.40
2022-11-09T00:30:27.982Z,0.60
2022-11-09T00:35:29.895Z,0.30
2022-11-09T00:40:31.722Z,0.60
2022-11-09T00:45:33.744Z,0.65
2022-11-09T00:50:35.645Z,0.43
2022-11-09T00:55:38.080Z,0.70
2022-11-09T01:00:40.104Z,0.50
2022-11-09T01:05:42.120Z,0.40
2022-11-09T01:10:47.093Z,0.55
2022-11-09T01:15:52.016Z,0.30
2022-11-09T01:20:53.939Z,0.50
2022-11-09T01:26:00.412Z,0.60
2022-11-09T01:31:05.085Z,0.30
2022-11-09T01:36:13.305Z,0.50
2022-11-09T01:41:27.670Z,0.63
2022-11-09T01:46:38.793Z,0.47
2022-11-09T01:51:46.078Z,0.60
2022-11-09T01:56:53.272Z,0.93
2022-11-09T02:01:55.803Z,0.47
2022-11-09T02:06:59.212Z,0.55
2022-11-09T02:12:01.332Z,0.30
2022-11-09T02:17:03.173Z,0.45
2022-11-09T02:22:05.120Z,0.30
2022-11-09T02:27:07.568Z,0.50
2022-11-09T02:32:15.024Z,0.43
2022-11-09T02:37:40.870Z,0.63
2022-11-09T02:42:43.092Z,0.35
2022-11-09T02:47:44.844Z,0.30
2022-11-09T02:52:46.709Z,0.40
2022-11-09T02:57:48.738Z,0.40
2022-11-09T03:02:50.845Z,0.30
2022-11-09T03:07:52.775Z,0.57
2022-11-09T03:12:55.316Z,0.50
2022-11-09T03:17:57.239Z,0.45
2022-11-09T03:23:00.403Z,0.40
2022-11-09T03:28:04.907Z,0.30
2022-11-09T03:33:10.644Z,0.63
2022-11-09T03:38:12.694Z,0.40
2022-11-09T03:43:14.694Z,0.60
2022-11-09T03:48:16.630Z,0.30
2022-11-09T03:53:19.071Z,0.60
2022-11-09T03:58:21.284Z,0.30
2022-11-09T04:03:23.338Z,0.38
2022-11-09T04:08:25.328Z,0.38
2022-11-09T04:13:27.384Z,0.20
2022-11-09T04:18:29.440Z,0.22
2022-11-09T04:23:31.362Z,0.43
2022-11-09T04:28:33.398Z,0.40
2022-11-09T04:33:35.565Z,0.45
2022-11-09T04:38:37.522Z,0.30
2022-11-09T04:43:39.520Z,0.40
2022-11-09T04:48:41.432Z,0.40
2022-11-09T04:53:43.298Z,0.50
2022-11-09T04:58:45.063Z,0.55
2022-11-09T05:03:46.945Z,0.47
2022-11-09T05:08:49.255Z,0.60
2022-11-09T05:13:54.242Z,0.60
2022-11-09T05:18:56.356Z,0.43
2022-11-09T05:24:01.299Z,0.40
2022-11-09T05:29:07.054Z,0.35
2022-11-09T05:34:13.038Z,0.40
2022-11-09T05:39:14.895Z,0.50
2022-11-09T05:44:17.371Z,0.47
2022-11-09T05:49:19.446Z,0.50
2022-11-09T05:54:21.496Z,0.45
2022-11-09T05:59:23.427Z,0.43
2022-11-09T06:04:25.190Z,0.40
2022-11-09T06:09:27.333Z,0.43
2022-11-09T06:14:29.505Z,0.20
2022-11-09T06:19:31.322Z,0.50
2022-11-09T06:24:33.328Z,0.40
2022-11-09T06:29:35.265Z,0.25
2022-11-09T06:34:37.333Z,0.10
2022-11-09T06:39:39.304Z,0.20
2022-11-09T06:44:41.180Z,0.63
2022-11-09T06:49:43.099Z,0.20
2022-11-09T06:54:45.105Z,0.30
2022-11-09T06:59:47.127Z,0.30
2022-11-09T07:04:52.472Z,0.30
2022-11-09T07:09:54.736Z,0.30
2022-11-09T07:14:56.926Z,0.40
2022-11-09T07:19:59.095Z,0.75
2022-11-09T07:25:01.249Z,0.57
2022-11-09T07:30:04.623Z,0.65
2022-11-09T07:35:07.982Z,0.63
2022-11-09T07:40:10.488Z,0.52
2022-11-09T07:45:12.584Z,0.57
2022-11-09T07:50:14.745Z,1.80
2022-11-09T07:55:17.937Z,0.93
2022-11-09T08:00:23.633Z,0.60
2022-11-09T08:05:26.222Z,0.60
2022-11-09T08:10:29.489Z,0.75
2022-11-09T08:15:32.383Z,4.68
2022-11-09T08:20:35.024Z,2.38
2022-11-09T08:25:38.845Z,2.10
2022-11-09T08:30:41.195Z,1.95
2022-11-09T08:35:43.313Z,1.55
2022-11-09T08:40:45.433Z,1.15
2022-11-09T08:45:48.445Z,1.17
2022-11-09T08:50:55.366Z,1.90
2022-11-09T08:55:57.716Z,1.30
2022-11-09T09:00:59.695Z,1.70
2022-11-09T09:06:06.181Z,1.13
2022-11-09T09:11:08.167Z,1.33
2022-11-09T09:16:11.968Z,2.10
2022-11-09T09:21:14.197Z,1.25
2022-11-09T09:26:16.937Z,1.92
2022-11-09T09:31:19.269Z,1.08
2022-11-09T09:36:23.354Z,0.90
2022-11-09T09:41:37.583Z,0.80
2022-11-09T09:46:46.561Z,1.67
2022-11-09T09:51:57.737Z,0.98
2022-11-09T09:57:01.779Z,1.00
2022-11-09T10:02:03.974Z,0.80
2022-11-09T10:07:12.518Z,1.00
2022-11-09T10:12:17.471Z,0.50
2022-11-09T10:17:45.257Z,1.33
2022-11-09T10:23:03.722Z,1.02
2022-11-09T10:28:13.394Z,0.75
2022-11-09T10:33:21.694Z,0.88
2022-11-09T10:38:28.507Z,1.08
2022-11-09T10:43:30.544Z,1.08
2022-11-09T10:48:36.039Z,0.50
2022-11-09T10:53:38.176Z,1.13
2022-11-09T10:58:54.254Z,0.80
2022-11-09T11:03:57.639Z,0.93
2022-11-09T11:09:16.688Z,0.70
2022-11-09T11:14:34.069Z,0.93
2022-11-09T11:19:45.129Z,0.50
2022-11-09T11:25:18.103Z,1.15
2022-11-09T11:30:28.508Z,0.65
2022-11-09T11:36:08.044Z,0.80
2022-11-09T11:41:28.310Z,0.65
2022-11-09T11:46:54.001Z,0.40
2022-11-09T11:52:27.960Z,1.05
2022-11-09T11:57:29.981Z,1.20
2022-11-09T12:02:51.273Z,0.70
2022-11-09T12:08:05.272Z,1.02
2022-11-09T12:13:30.600Z,0.43
2022-11-09T12:18:54.277Z,0.75
2022-11-09T12:24:21.334Z,0.35
2022-11-09T12:29:30.206Z,0.60
2022-11-09T12:34:58.246Z,0.50
2022-11-09T12:40:13.899Z,0.60
2022-11-09T12:45:15.898Z,0.98
2022-11-09T12:50:20.566Z,1.00
2022-11-09T12:55:38.541Z,0.57
2022-11-09T13:00:45.126Z,0.63
2022-11-09T13:05:48.980Z,0.90
2022-11-09T13:11:30.417Z,0.68
2022-11-09T13:16:35.665Z,0.47
2022-11-09T13:21:39.215Z,0.90
2022-11-09T13:26:55.951Z,0.60
2022-11-09T13:32:24.106Z,0.90
2022-11-09T13:37:41.291Z,0.70
2022-11-09T13:42:43.732Z,0.60
2022-11-09T13:47:52.583Z,0.75
2022-11-09T13:52:59.730Z,0.68
2022-11-09T13:58:10.845Z,0.57
2022-11-09T14:03:24.692Z,0.55
2022-11-09T14:08:30.539Z,0.35
2022-11-09T14:14:11.499Z,0.85
2022-11-09T14:19:27.972Z,0.63
2022-11-09T14:24:33.852Z,0.52
2022-11-09T14:29:55.178Z,0.75
2022-11-09T14:35:23.948Z,0.43
2022-11-09T14:40:27.861Z,0.63
2022-11-09T14:45:30.164Z,0.50
2022-11-09T14:50:35.948Z,0.80
2022-11-09T14:55:43.025Z,0.47
2022-11-09T15:00:46.266Z,0.40
2022-11-09T15:05:48.667Z,0.40
2022-11-09T15:10:53.837Z,0.40
2022-11-09T15:15:56.109Z,0.43
2022-11-09T15:21:14.139Z,0.40
2022-11-09T15:26:35.960Z,0.90
2022-11-09T15:31:38.225Z,0.60
2022-11-09T15:36:45.043Z,0.82
2022-11-09T15:41:48.329Z,0.40
2022-11-09T15:46:52.622Z,0.70
2022-11-09T15:51:55.693Z,0.45
2022-11-09T15:56:57.968Z,0.40
2022-11-09T16:01:59.966Z,0.82
2022-11-09T16:07:02.088Z,0.40
2022-11-09T16:12:04.177Z,0.50
2022-11-09T16:17:06.207Z,0.40
2022-11-09T16:22:08.969Z,0.50
2022-11-09T16:27:22.279Z,0.47
2022-11-09T16:32:33.229Z,0.60
2022-11-09T16:37:39.047Z,0.38
2022-11-09T16:42:41.376Z,0.47
2022-11-09T16:47:47.947Z,0.60
2022-11-09T16:52:50.041Z,0.40
2022-11-09T16:57:51.924Z,0.65
2022-11-09T17:02:54.126Z,4.05
2022-11-09T17:07:56.026Z,4.70
2022-11-09T17:12:57.930Z,3.47
2022-11-09T17:18:00.331Z,3.03
2022-11-09T17:23:02.577Z,2.63
2022-11-09T17:28:05.752Z,3.38
2022-11-09T17:33:08.416Z,1.85
2022-11-09T17:38:10.896Z,2.65
2022-11-09T17:43:13.349Z,3.25
2022-11-09T17:48:15.249Z,2.80
2022-11-09T17:53:17.466Z,2.00
2022-11-09T17:58:20.030Z,2.92
2022-11-09T18:03:23.456Z,1.30
2022-11-09T18:08:26.011Z,2.75
2022-11-09T18:13:28.235Z,1.63
2022-11-09T18:18:30.329Z,1.45
2022-11-09T18:23:33.443Z,1.83
2022-11-09T18:28:36.453Z,1.92
2022-11-09T18:33:40.380Z,2.40
2022-11-09T18:38:44.189Z,2.17
2022-11-09T18:43:47.125Z,1.10
2022-11-09T18:48:53.578Z,2.33
2022-11-09T18:53:55.748Z,0.77
2022-11-09T18:58:58.183Z,2.25
2022-11-09T19:04:03.064Z,1.48
2022-11-09T19:09:23.767Z,1.42
2022-11-09T19:14:26.425Z,0.90
2022-11-09T19:19:28.335Z,1.30
2022-11-09T19:24:31.307Z,1.63
2022-11-09T19:29:33.081Z,0.90
2022-11-09T19:34:34.856Z,1.00
2022-11-09T19:39:41.794Z,0.82
2022-11-09T19:44:45.008Z,1.33
2022-11-09T19:49:47.080Z,1.83
2022-11-09T19:54:48.960Z,1.85
2022-11-09T19:59:51.095Z,0.98
2022-11-09T20:04:54.070Z,1.27
2022-11-09T20:09:56.006Z,1.08
2022-11-09T20:14:57.935Z,1.17
2022-11-09T20:20:00.108Z,0.88
2022-11-09T20:25:02.207Z,0.80
2022-11-09T20:30:04.776Z,0.70
2022-11-09T20:35:07.072Z,0.68
2022-11-09T20:40:09.468Z,0.98
2022-11-09T20:45:11.553Z,1.25
2022-11-09T20:50:14.527Z,0.70
2022-11-09T20:55:16.508Z,1.10
2022-11-09T21:00:24.088Z,0.50
2022-11-09T21:05:26.240Z,0.90
2022-11-09T21:10:28.173Z,0.70
2022-11-09T21:15:30.357Z,0.80
2022-11-09T21:20:31.990Z,0.77
2022-11-09T21:25:54.935Z,0.80
2022-11-09T21:31:00.704Z,0.95
2022-11-09T21:36:10.191Z,0.80
2022-11-09T21:41:34.062Z,0.60
2022-11-09T21:46:37.407Z,0.70
2022-11-09T21:51:41.423Z,0.82
2022-11-09T21:56:43.162Z,0.68
2022-11-09T22:01:45.643Z,0.70
2022-11-09T22:06:47.669Z,0.55
2022-11-09T22:12:08.125Z,0.55
2022-11-09T22:17:10.215Z,0.90
2022-11-09T22:22:13.158Z,1.42
2022-11-09T22:27:17.548Z,0.93
2022-11-09T22:32:19.745Z,0.82
2022-11-09T22:37:21.998Z,0.98
2022-11-09T22:42:24.351Z,0.50
2022-11-09T22:47:26.773Z,0.80
2022-11-09T22:52:29.136Z,0.80
2022-11-09T22:57:33.358Z,0.40
2022-11-09T23:02:35.696Z,0.60
2022-11-09T23:07:37.598Z,0.45
2022-11-09T23:12:39.571Z,0.77
2022-11-09T23:18:00.562Z,0.68
2022-11-09T23:23:02.857Z,0.32
2022-11-09T23:28:05.382Z,0.70
2022-11-09T23:33:07.834Z,0.80
2022-11-09T23:38:09.973Z,0.80
2022-11-09T23:43:12.764Z,0.98
2022-11-09T23:48:17.214Z,0.40
2022-11-09T23:53:19.748Z,1.05
2022-11-09T23:58:22.117Z,0.60
